sensor_id;sensor_type;location;lat;lon;timestamp;P1;durP1;ratioP1;P2;durP2;ratioP2
77722;SDS011;67811;42.656;23.394;2024-02-23T00:01:03;12.25;;;6.85;;
77722;SDS011;67811;42.656;23.394;2024-02-23T00:05:08;14.35;;;6.97;;
77722;SDS011;67811;42.656;23.394;2024-02-23T00:09:14;12.00;;;6.38;;
77722;SDS011;67811;42.656;23.394;2024-02-23T00:13:19;11.97;;;6.20;;
77722;SDS011;67811;42.656;23.394;2024-02-23T00:17:24;12.10;;;6.68;;
77722;SDS011;67811;42.656;23.394;2024-02-23T00:21:29;12.10;;;7.22;;
77722;SDS011;67811;42.656;23.394;2024-02-23T00:25:35;15.90;;;7.70;;
77722;SDS011;67811;42.656;23.394;2024-02-23T00:29:40;12.98;;;6.72;;
77722;SDS011;67811;42.656;23.394;2024-02-23T00:33:45;16.57;;;8.10;;
77722;SDS011;67811;42.656;23.394;2024-02-23T00:37:50;12.33;;;6.80;;
77722;SDS011;67811;42.656;23.394;2024-02-23T00:41:56;13.88;;;7.60;;
77722;SDS011;67811;42.656;23.394;2024-02-23T00:46:01;14.67;;;7.33;;
77722;SDS011;67811;42.656;23.394;2024-02-23T00:50:06;14.60;;;7.30;;
77722;SDS011;67811;42.656;23.394;2024-02-23T00:54:12;13.90;;;7.00;;
77722;SDS011;67811;42.656;23.394;2024-02-23T00:58:17;12.35;;;7.07;;
77722;SDS011;67811;42.656;23.394;2024-02-23T01:02:22;12.70;;;7.22;;
77722;SDS011;67811;42.656;23.394;2024-02-23T01:06:28;13.50;;;6.80;;
77722;SDS011;67811;42.656;23.394;2024-02-23T01:10:33;13.68;;;7.10;;
77722;SDS011;67811;42.656;23.394;2024-02-23T01:14:38;11.77;;;6.50;;
77722;SDS011;67811;42.656;23.394;2024-02-23T01:18:43;15.45;;;7.20;;
77722;SDS011;67811;42.656;23.394;2024-02-23T01:22:49;13.60;;;5.80;;
77722;SDS011;67811;42.656;23.394;2024-02-23T01:26:54;11.60;;;5.57;;
77722;SDS011;67811;42.656;23.394;2024-02-23T01:31:00;11.90;;;6.55;;
77722;SDS011;67811;42.656;23.394;2024-02-23T01:35:05;10.87;;;6.63;;
77722;SDS011;67811;42.656;23.394;2024-02-23T01:39:11;10.77;;;5.78;;
77722;SDS011;67811;42.656;23.394;2024-02-23T01:43:16;11.33;;;5.80;;
77722;SDS011;67811;42.656;23.394;2024-02-23T01:47:22;9.93;;;6.10;;
77722;SDS011;67811;42.656;23.394;2024-02-23T01:51:28;10.73;;;6.95;;
77722;SDS011;67811;42.656;23.394;2024-02-23T01:55:34;10.75;;;5.85;;
77722;SDS011;67811;42.656;23.394;2024-02-23T01:59:39;8.80;;;5.70;;
77722;SDS011;67811;42.656;23.394;2024-02-23T02:03:45;12.20;;;6.05;;
77722;SDS011;67811;42.656;23.394;2024-02-23T02:07:50;11.52;;;6.05;;
77722;SDS011;67811;42.656;23.394;2024-02-23T02:11:57;11.20;;;5.40;;
77722;SDS011;67811;42.656;23.394;2024-02-23T02:16:03;10.63;;;5.93;;
77722;SDS011;67811;42.656;23.394;2024-02-23T02:20:11;11.70;;;6.00;;
77722;SDS011;67811;42.656;23.394;2024-02-23T02:24:17;11.25;;;5.65;;
77722;SDS011;67811;42.656;23.394;2024-02-23T02:28:22;11.75;;;7.05;;
77722;SDS011;67811;42.656;23.394;2024-02-23T02:32:28;14.30;;;7.78;;
77722;SDS011;67811;42.656;23.394;2024-02-23T02:36:34;12.53;;;5.77;;
77722;SDS011;67811;42.656;23.394;2024-02-23T02:40:39;11.65;;;6.75;;
77722;SDS011;67811;42.656;23.394;2024-02-23T02:44:44;9.95;;;6.80;;
77722;SDS011;67811;42.656;23.394;2024-02-23T02:48:49;11.80;;;6.27;;
77722;SDS011;67811;42.656;23.394;2024-02-23T02:52:55;14.20;;;6.87;;
77722;SDS011;67811;42.656;23.394;2024-02-23T02:57:00;12.37;;;5.97;;
77722;SDS011;67811;42.656;23.394;2024-02-23T03:01:05;14.07;;;7.93;;
77722;SDS011;67811;42.656;23.394;2024-02-23T03:05:10;13.10;;;6.55;;
77722;SDS011;67811;42.656;23.394;2024-02-23T03:09:16;12.77;;;7.47;;
77722;SDS011;67811;42.656;23.394;2024-02-23T03:13:21;17.27;;;7.53;;
77722;SDS011;67811;42.656;23.394;2024-02-23T03:17:26;13.75;;;6.60;;
77722;SDS011;67811;42.656;23.394;2024-02-23T03:21:31;12.20;;;7.15;;
77722;SDS011;67811;42.656;23.394;2024-02-23T03:25:37;13.35;;;7.18;;
77722;SDS011;67811;42.656;23.394;2024-02-23T03:29:42;13.43;;;6.33;;
77722;SDS011;67811;42.656;23.394;2024-02-23T03:33:47;12.50;;;5.55;;
77722;SDS011;67811;42.656;23.394;2024-02-23T03:37:54;12.30;;;6.20;;
77722;SDS011;67811;42.656;23.394;2024-02-23T03:41:59;10.85;;;5.90;;
77722;SDS011;67811;42.656;23.394;2024-02-23T03:46:05;12.73;;;6.88;;
77722;SDS011;67811;42.656;23.394;2024-02-23T03:50:11;13.18;;;6.88;;
77722;SDS011;67811;42.656;23.394;2024-02-23T03:54:16;12.13;;;6.20;;
77722;SDS011;67811;42.656;23.394;2024-02-23T03:58:21;10.35;;;6.22;;
77722;SDS011;67811;42.656;23.394;2024-02-23T04:02:27;11.90;;;6.07;;
77722;SDS011;67811;42.656;23.394;2024-02-23T04:06:33;11.50;;;6.03;;
77722;SDS011;67811;42.656;23.394;2024-02-23T04:10:38;11.43;;;6.40;;
77722;SDS011;67811;42.656;23.394;2024-02-23T04:14:43;7.23;;;3.80;;
77722;SDS011;67811;42.656;23.394;2024-02-23T04:18:49;10.40;;;5.43;;
77722;SDS011;67811;42.656;23.394;2024-02-23T04:22:54;10.23;;;5.05;;
77722;SDS011;67811;42.656;23.394;2024-02-23T04:26:59;9.83;;;5.60;;
77722;SDS011;67811;42.656;23.394;2024-02-23T04:31:04;10.50;;;5.20;;
77722;SDS011;67811;42.656;23.394;2024-02-23T04:35:10;8.47;;;5.20;;
77722;SDS011;67811;42.656;23.394;2024-02-23T04:39:15;10.10;;;5.97;;
77722;SDS011;67811;42.656;23.394;2024-02-23T04:43:20;12.30;;;5.03;;
77722;SDS011;67811;42.656;23.394;2024-02-23T04:47:26;8.77;;;4.78;;
77722;SDS011;67811;42.656;23.394;2024-02-23T04:51:31;11.17;;;5.47;;
77722;SDS011;67811;42.656;23.394;2024-02-23T04:55:36;10.80;;;5.43;;
77722;SDS011;67811;42.656;23.394;2024-02-23T04:59:41;9.15;;;4.68;;
77722;SDS011;67811;42.656;23.394;2024-02-23T05:03:47;9.48;;;4.85;;
77722;SDS011;67811;42.656;23.394;2024-02-23T05:07:52;8.65;;;5.88;;
77722;SDS011;67811;42.656;23.394;2024-02-23T05:11:57;10.82;;;5.35;;
77722;SDS011;67811;42.656;23.394;2024-02-23T05:16:02;9.90;;;5.67;;
77722;SDS011;67811;42.656;23.394;2024-02-23T05:20:08;13.53;;;6.20;;
77722;SDS011;67811;42.656;23.394;2024-02-23T05:24:14;10.48;;;6.00;;
77722;SDS011;67811;42.656;23.394;2024-02-23T05:28:19;10.57;;;5.72;;
77722;SDS011;67811;42.656;23.394;2024-02-23T05:32:24;15.70;;;6.40;;
77722;SDS011;67811;42.656;23.394;2024-02-23T05:36:29;10.93;;;5.68;;
77722;SDS011;67811;42.656;23.394;2024-02-23T05:40:34;11.75;;;6.93;;
77722;SDS011;67811;42.656;23.394;2024-02-23T05:44:43;9.70;;;6.23;;
77722;SDS011;67811;42.656;23.394;2024-02-23T05:48:48;12.85;;;7.00;;
77722;SDS011;67811;42.656;23.394;2024-02-23T05:52:53;12.88;;;6.93;;
77722;SDS011;67811;42.656;23.394;2024-02-23T05:56:59;14.53;;;7.30;;
77722;SDS011;67811;42.656;23.394;2024-02-23T06:01:04;11.95;;;7.22;;
77722;SDS011;67811;42.656;23.394;2024-02-23T06:05:09;14.77;;;8.07;;
77722;SDS011;67811;42.656;23.394;2024-02-23T06:09:14;19.07;;;9.90;;
77722;SDS011;67811;42.656;23.394;2024-02-23T06:13:20;11.63;;;7.93;;
77722;SDS011;67811;42.656;23.394;2024-02-23T06:17:25;15.40;;;8.60;;
77722;SDS011;67811;42.656;23.394;2024-02-23T06:21:30;14.98;;;8.75;;
77722;SDS011;67811;42.656;23.394;2024-02-23T06:25:35;16.63;;;8.73;;
77722;SDS011;67811;42.656;23.394;2024-02-23T06:29:41;14.23;;;8.20;;
77722;SDS011;67811;42.656;23.394;2024-02-23T06:33:46;14.45;;;8.23;;
77722;SDS011;67811;42.656;23.394;2024-02-23T06:37:51;17.50;;;9.37;;
77722;SDS011;67811;42.656;23.394;2024-02-23T06:41:56;16.40;;;9.77;;
77722;SDS011;67811;42.656;23.394;2024-02-23T06:46:08;16.85;;;10.73;;
77722;SDS011;67811;42.656;23.394;2024-02-23T06:50:14;14.05;;;9.18;;
77722;SDS011;67811;42.656;23.394;2024-02-23T06:54:19;14.43;;;8.18;;
77722;SDS011;67811;42.656;23.394;2024-02-23T06:58:24;17.67;;;8.60;;
77722;SDS011;67811;42.656;23.394;2024-02-23T07:02:29;17.58;;;9.15;;
77722;SDS011;67811;42.656;23.394;2024-02-23T07:06:35;15.35;;;9.02;;
77722;SDS011;67811;42.656;23.394;2024-02-23T07:10:40;15.88;;;9.77;;
77722;SDS011;67811;42.656;23.394;2024-02-23T07:14:45;18.70;;;11.33;;
77722;SDS011;67811;42.656;23.394;2024-02-23T07:18:50;23.00;;;12.27;;
77722;SDS011;67811;42.656;23.394;2024-02-23T07:22:56;30.43;;;16.07;;
77722;SDS011;67811;42.656;23.394;2024-02-23T07:27:01;22.73;;;11.53;;
77722;SDS011;67811;42.656;23.394;2024-02-23T07:31:06;16.13;;;9.70;;
77722;SDS011;67811;42.656;23.394;2024-02-23T07:35:12;15.73;;;9.70;;
77722;SDS011;67811;42.656;23.394;2024-02-23T07:39:17;17.55;;;11.43;;
77722;SDS011;67811;42.656;23.394;2024-02-23T07:43:22;17.53;;;10.47;;
77722;SDS011;67811;42.656;23.394;2024-02-23T07:47:27;18.70;;;8.68;;
77722;SDS011;67811;42.656;23.394;2024-02-23T07:51:33;17.27;;;9.35;;
77722;SDS011;67811;42.656;23.394;2024-02-23T07:55:38;18.80;;;11.07;;
77722;SDS011;67811;42.656;23.394;2024-02-23T07:59:43;14.55;;;8.18;;
77722;SDS011;67811;42.656;23.394;2024-02-23T08:03:48;13.30;;;7.37;;
77722;SDS011;67811;42.656;23.394;2024-02-23T08:07:54;14.48;;;7.40;;
77722;SDS011;67811;42.656;23.394;2024-02-23T08:11:59;10.40;;;6.10;;
77722;SDS011;67811;42.656;23.394;2024-02-23T08:16:04;10.53;;;5.97;;
77722;SDS011;67811;42.656;23.394;2024-02-23T08:20:10;11.60;;;6.32;;
77722;SDS011;67811;42.656;23.394;2024-02-23T08:24:15;8.87;;;5.07;;
77722;SDS011;67811;42.656;23.394;2024-02-23T08:28:20;11.40;;;6.83;;
77722;SDS011;67811;42.656;23.394;2024-02-23T08:32:26;7.75;;;5.75;;
77722;SDS011;67811;42.656;23.394;2024-02-23T08:36:31;9.33;;;5.40;;
77722;SDS011;67811;42.656;23.394;2024-02-23T08:40:36;11.07;;;5.90;;
77722;SDS011;67811;42.656;23.394;2024-02-23T08:44:41;9.73;;;6.18;;
77722;SDS011;67811;42.656;23.394;2024-02-23T08:48:47;13.13;;;7.43;;
77722;SDS011;67811;42.656;23.394;2024-02-23T08:52:52;15.03;;;7.40;;
77722;SDS011;67811;42.656;23.394;2024-02-23T08:56:57;9.73;;;5.80;;
77722;SDS011;67811;42.656;23.394;2024-02-23T09:01:03;12.87;;;6.53;;
77722;SDS011;67811;42.656;23.394;2024-02-23T09:05:08;9.47;;;6.00;;
77722;SDS011;67811;42.656;23.394;2024-02-23T09:09:13;9.95;;;6.03;;
77722;SDS011;67811;42.656;23.394;2024-02-23T09:13:19;12.07;;;4.93;;
77722;SDS011;67811;42.656;23.394;2024-02-23T09:17:24;14.30;;;5.87;;
77722;SDS011;67811;42.656;23.394;2024-02-23T09:21:29;11.33;;;5.80;;
77722;SDS011;67811;42.656;23.394;2024-02-23T09:25:34;13.48;;;5.30;;
77722;SDS011;67811;42.656;23.394;2024-02-23T09:29:40;8.03;;;4.63;;
77722;SDS011;67811;42.656;23.394;2024-02-23T09:33:46;7.55;;;4.78;;
77722;SDS011;67811;42.656;23.394;2024-02-23T09:37:51;8.33;;;4.80;;
77722;SDS011;67811;42.656;23.394;2024-02-23T09:41:56;6.82;;;4.07;;
77722;SDS011;67811;42.656;23.394;2024-02-23T09:46:01;8.67;;;4.90;;
77722;SDS011;67811;42.656;23.394;2024-02-23T09:50:07;6.70;;;3.90;;
77722;SDS011;67811;42.656;23.394;2024-02-23T09:58:19;6.88;;;3.67;;
77722;SDS011;67811;42.656;23.394;2024-02-23T10:02:25;6.43;;;3.38;;
77722;SDS011;67811;42.656;23.394;2024-02-23T10:06:30;5.13;;;3.10;;
77722;SDS011;67811;42.656;23.394;2024-02-23T10:10:36;6.57;;;3.47;;
77722;SDS011;67811;42.656;23.394;2024-02-23T10:14:42;5.88;;;3.20;;
77722;SDS011;67811;42.656;23.394;2024-02-23T10:18:47;5.35;;;3.17;;
77722;SDS011;67811;42.656;23.394;2024-02-23T10:22:53;5.18;;;3.03;;
77722;SDS011;67811;42.656;23.394;2024-02-23T10:27:00;5.13;;;2.50;;
77722;SDS011;67811;42.656;23.394;2024-02-23T10:31:06;4.93;;;2.83;;
77722;SDS011;67811;42.656;23.394;2024-02-23T10:35:14;5.68;;;2.40;;
77722;SDS011;67811;42.656;23.394;2024-02-23T10:39:20;8.75;;;3.05;;
77722;SDS011;67811;42.656;23.394;2024-02-23T10:43:42;6.15;;;3.03;;
77722;SDS011;67811;42.656;23.394;2024-02-23T10:47:50;4.75;;;2.30;;
77722;SDS011;67811;42.656;23.394;2024-02-23T10:51:56;4.95;;;2.72;;
77722;SDS011;67811;42.656;23.394;2024-02-23T10:56:02;4.63;;;2.08;;
77722;SDS011;67811;42.656;23.394;2024-02-23T11:00:09;5.32;;;2.45;;
77722;SDS011;67811;42.656;23.394;2024-02-23T11:04:21;3.95;;;2.50;;
77722;SDS011;67811;42.656;23.394;2024-02-23T11:08:28;5.88;;;2.38;;
77722;SDS011;67811;42.656;23.394;2024-02-23T11:12:42;4.93;;;2.45;;
77722;SDS011;67811;42.656;23.394;2024-02-23T11:16:48;5.10;;;2.45;;
77722;SDS011;67811;42.656;23.394;2024-02-23T11:20:58;4.10;;;2.30;;
77722;SDS011;67811;42.656;23.394;2024-02-23T11:25:05;4.90;;;2.30;;
77722;SDS011;67811;42.656;23.394;2024-02-23T11:33:25;6.50;;;2.73;;
77722;SDS011;67811;42.656;23.394;2024-02-23T11:37:31;4.75;;;2.00;;
77722;SDS011;67811;42.656;23.394;2024-02-23T11:41:36;4.85;;;2.13;;
77722;SDS011;67811;42.656;23.394;2024-02-23T11:45:42;4.68;;;2.70;;
77722;SDS011;67811;42.656;23.394;2024-02-23T11:49:47;4.15;;;2.28;;
77722;SDS011;67811;42.656;23.394;2024-02-23T11:53:52;4.32;;;2.25;;
77722;SDS011;67811;42.656;23.394;2024-02-23T11:57:59;6.18;;;2.25;;
77722;SDS011;67811;42.656;23.394;2024-02-23T12:02:06;4.85;;;2.20;;
77722;SDS011;67811;42.656;23.394;2024-02-23T12:06:11;3.60;;;2.13;;
77722;SDS011;67811;42.656;23.394;2024-02-23T12:10:19;4.32;;;2.10;;
77722;SDS011;67811;42.656;23.394;2024-02-23T12:14:25;3.60;;;1.90;;
77722;SDS011;67811;42.656;23.394;2024-02-23T12:18:32;4.67;;;1.77;;
77722;SDS011;67811;42.656;23.394;2024-02-23T12:22:38;3.92;;;2.00;;
77722;SDS011;67811;42.656;23.394;2024-02-23T12:26:45;4.05;;;1.70;;
77722;SDS011;67811;42.656;23.394;2024-02-23T12:31:01;4.03;;;1.90;;
77722;SDS011;67811;42.656;23.394;2024-02-23T12:35:10;3.72;;;1.98;;
77722;SDS011;67811;42.656;23.394;2024-02-23T12:39:16;5.38;;;1.77;;
77722;SDS011;67811;42.656;23.394;2024-02-23T12:43:21;6.03;;;1.85;;
77722;SDS011;67811;42.656;23.394;2024-02-23T12:47:26;3.80;;;1.73;;
77722;SDS011;67811;42.656;23.394;2024-02-23T12:51:32;4.28;;;1.75;;
77722;SDS011;67811;42.656;23.394;2024-02-23T12:55:37;3.37;;;1.63;;
77722;SDS011;67811;42.656;23.394;2024-02-23T12:59:42;5.43;;;2.03;;
77722;SDS011;67811;42.656;23.394;2024-02-23T13:03:48;5.93;;;2.00;;
77722;SDS011;67811;42.656;23.394;2024-02-23T13:07:53;3.20;;;1.63;;
77722;SDS011;67811;42.656;23.394;2024-02-23T13:11:58;3.20;;;1.50;;
77722;SDS011;67811;42.656;23.394;2024-02-23T13:16:04;6.67;;;2.03;;
77722;SDS011;67811;42.656;23.394;2024-02-23T13:20:09;3.88;;;1.73;;
77722;SDS011;67811;42.656;23.394;2024-02-23T13:24:15;9.82;;;2.45;;
77722;SDS011;67811;42.656;23.394;2024-02-23T13:28:20;3.40;;;1.70;;
77722;SDS011;67811;42.656;23.394;2024-02-23T13:32:26;4.50;;;1.70;;
77722;SDS011;67811;42.656;23.394;2024-02-23T13:36:31;4.00;;;2.03;;
77722;SDS011;67811;42.656;23.394;2024-02-23T13:40:36;4.97;;;1.80;;
77722;SDS011;67811;42.656;23.394;2024-02-23T13:44:41;3.97;;;1.87;;
77722;SDS011;67811;42.656;23.394;2024-02-23T13:48:48;4.88;;;1.92;;
77722;SDS011;67811;42.656;23.394;2024-02-23T13:53:08;3.78;;;1.90;;
77722;SDS011;67811;42.656;23.394;2024-02-23T13:57:13;4.37;;;2.10;;
77722;SDS011;67811;42.656;23.394;2024-02-23T14:01:18;6.03;;;2.70;;
77722;SDS011;67811;42.656;23.394;2024-02-23T14:05:23;4.30;;;1.87;;
77722;SDS011;67811;42.656;23.394;2024-02-23T14:09:29;8.87;;;2.43;;
77722;SDS011;67811;42.656;23.394;2024-02-23T14:13:34;3.80;;;1.80;;
77722;SDS011;67811;42.656;23.394;2024-02-23T14:17:39;3.70;;;2.03;;
77722;SDS011;67811;42.656;23.394;2024-02-23T14:21:44;6.13;;;2.17;;
77722;SDS011;67811;42.656;23.394;2024-02-23T14:25:50;5.63;;;1.90;;
77722;SDS011;67811;42.656;23.394;2024-02-23T14:29:55;5.68;;;2.03;;
77722;SDS011;67811;42.656;23.394;2024-02-23T14:34:00;4.27;;;2.00;;
77722;SDS011;67811;42.656;23.394;2024-02-23T14:38:05;4.82;;;2.05;;
77722;SDS011;67811;42.656;23.394;2024-02-23T14:42:11;5.27;;;2.43;;
77722;SDS011;67811;42.656;23.394;2024-02-23T14:46:16;4.80;;;2.17;;
77722;SDS011;67811;42.656;23.394;2024-02-23T14:50:21;4.73;;;2.10;;
77722;SDS011;67811;42.656;23.394;2024-02-23T14:54:27;5.53;;;2.10;;
77722;SDS011;67811;42.656;23.394;2024-02-23T14:58:32;5.20;;;2.50;;
77722;SDS011;67811;42.656;23.394;2024-02-23T15:02:37;4.80;;;2.35;;
77722;SDS011;67811;42.656;23.394;2024-02-23T15:06:43;9.73;;;2.03;;
77722;SDS011;67811;42.656;23.394;2024-02-23T15:10:49;8.40;;;1.90;;
77722;SDS011;67811;42.656;23.394;2024-02-23T15:14:54;7.00;;;2.00;;
77722;SDS011;67811;42.656;23.394;2024-02-23T15:18:59;3.63;;;2.00;;
77722;SDS011;67811;42.656;23.394;2024-02-23T15:23:04;3.77;;;2.00;;
77722;SDS011;67811;42.656;23.394;2024-02-23T15:27:10;4.00;;;2.20;;
77722;SDS011;67811;42.656;23.394;2024-02-23T15:31:15;4.40;;;1.80;;
77722;SDS011;67811;42.656;23.394;2024-02-23T15:35:20;4.93;;;2.10;;
77722;SDS011;67811;42.656;23.394;2024-02-23T15:39:25;4.90;;;1.90;;
77722;SDS011;67811;42.656;23.394;2024-02-23T15:43:31;7.90;;;2.38;;
77722;SDS011;67811;42.656;23.394;2024-02-23T15:47:36;4.83;;;2.30;;
77722;SDS011;67811;42.656;23.394;2024-02-23T15:51:41;4.77;;;2.20;;
77722;SDS011;67811;42.656;23.394;2024-02-23T15:55:47;5.00;;;2.43;;
77722;SDS011;67811;42.656;23.394;2024-02-23T15:59:52;4.60;;;2.57;;
77722;SDS011;67811;42.656;23.394;2024-02-23T16:03:57;5.05;;;2.53;;
77722;SDS011;67811;42.656;23.394;2024-02-23T16:08:02;4.07;;;2.13;;
77722;SDS011;67811;42.656;23.394;2024-02-23T16:12:08;5.50;;;2.47;;
77722;SDS011;67811;42.656;23.394;2024-02-23T16:16:13;3.90;;;2.07;;
77722;SDS011;67811;42.656;23.394;2024-02-23T16:20:18;2.75;;;1.58;;
77722;SDS011;67811;42.656;23.394;2024-02-23T16:24:24;5.30;;;2.27;;
77722;SDS011;67811;42.656;23.394;2024-02-23T16:28:29;6.43;;;2.80;;
77722;SDS011;67811;42.656;23.394;2024-02-23T16:32:34;6.47;;;4.30;;
77722;SDS011;67811;42.656;23.394;2024-02-23T16:36:39;9.03;;;5.03;;
77722;SDS011;67811;42.656;23.394;2024-02-23T16:40:45;5.20;;;2.00;;
77722;SDS011;67811;42.656;23.394;2024-02-23T16:44:50;6.00;;;3.15;;
77722;SDS011;67811;42.656;23.394;2024-02-23T16:48:55;4.07;;;2.47;;
77722;SDS011;67811;42.656;23.394;2024-02-23T16:53:00;6.10;;;2.53;;
77722;SDS011;67811;42.656;23.394;2024-02-23T16:57:06;6.07;;;2.65;;
77722;SDS011;67811;42.656;23.394;2024-02-23T17:01:11;5.87;;;3.03;;
77722;SDS011;67811;42.656;23.394;2024-02-23T17:05:16;11.07;;;2.77;;
77722;SDS011;67811;42.656;23.394;2024-02-23T17:09:21;5.17;;;2.80;;
77722;SDS011;67811;42.656;23.394;2024-02-23T17:13:27;4.70;;;3.05;;
77722;SDS011;67811;42.656;23.394;2024-02-23T17:17:32;6.35;;;3.58;;
77722;SDS011;67811;42.656;23.394;2024-02-23T17:21:37;6.27;;;3.63;;
77722;SDS011;67811;42.656;23.394;2024-02-23T17:25:42;6.60;;;3.70;;
77722;SDS011;67811;42.656;23.394;2024-02-23T17:29:48;5.80;;;3.70;;
77722;SDS011;67811;42.656;23.394;2024-02-23T17:33:53;6.90;;;4.03;;
77722;SDS011;67811;42.656;23.394;2024-02-23T17:37:58;7.10;;;3.77;;
77722;SDS011;67811;42.656;23.394;2024-02-23T17:42:04;6.50;;;3.90;;
77722;SDS011;67811;42.656;23.394;2024-02-23T17:46:10;7.40;;;4.35;;
77722;SDS011;67811;42.656;23.394;2024-02-23T17:50:15;5.83;;;3.07;;
77722;SDS011;67811;42.656;23.394;2024-02-23T17:54:20;6.77;;;3.17;;
77722;SDS011;67811;42.656;23.394;2024-02-23T17:58:25;5.13;;;3.20;;
77722;SDS011;67811;42.656;23.394;2024-02-23T18:02:31;5.57;;;3.50;;
77722;SDS011;67811;42.656;23.394;2024-02-23T18:06:36;7.70;;;3.55;;
77722;SDS011;67811;42.656;23.394;2024-02-23T18:10:41;6.33;;;3.27;;
77722;SDS011;67811;42.656;23.394;2024-02-23T18:14:47;5.43;;;2.83;;
77722;SDS011;67811;42.656;23.394;2024-02-23T18:18:52;10.50;;;4.00;;
77722;SDS011;67811;42.656;23.394;2024-02-23T18:22:57;6.90;;;3.97;;
77722;SDS011;67811;42.656;23.394;2024-02-23T18:27:02;7.37;;;3.80;;
77722;SDS011;67811;42.656;23.394;2024-02-23T18:31:08;7.32;;;4.10;;
77722;SDS011;67811;42.656;23.394;2024-02-23T18:35:13;9.80;;;4.70;;
77722;SDS011;67811;42.656;23.394;2024-02-23T18:39:18;6.87;;;4.17;;
77722;SDS011;67811;42.656;23.394;2024-02-23T18:43:24;7.97;;;4.53;;
77722;SDS011;67811;42.656;23.394;2024-02-23T18:47:29;8.48;;;3.97;;
77722;SDS011;67811;42.656;23.394;2024-02-23T18:51:34;6.10;;;3.40;;
77722;SDS011;67811;42.656;23.394;2024-02-23T18:55:39;4.60;;;2.28;;
77722;SDS011;67811;42.656;23.394;2024-02-23T18:59:44;5.00;;;2.43;;
77722;SDS011;67811;42.656;23.394;2024-02-23T19:03:50;4.43;;;2.57;;
77722;SDS011;67811;42.656;23.394;2024-02-23T19:07:55;3.60;;;1.80;;
77722;SDS011;67811;42.656;23.394;2024-02-23T19:12:00;4.00;;;2.50;;
77722;SDS011;67811;42.656;23.394;2024-02-23T19:16:10;4.93;;;3.15;;
77722;SDS011;67811;42.656;23.394;2024-02-23T19:20:17;8.50;;;2.83;;
77722;SDS011;67811;42.656;23.394;2024-02-23T19:24:22;3.10;;;1.63;;
77722;SDS011;67811;42.656;23.394;2024-02-23T19:28:27;5.73;;;2.97;;
77722;SDS011;67811;42.656;23.394;2024-02-23T19:32:32;4.50;;;2.53;;
77722;SDS011;67811;42.656;23.394;2024-02-23T19:36:38;6.37;;;3.23;;
77722;SDS011;67811;42.656;23.394;2024-02-23T19:40:43;7.90;;;4.18;;
77722;SDS011;67811;42.656;23.394;2024-02-23T19:44:50;7.13;;;3.03;;
77722;SDS011;67811;42.656;23.394;2024-02-23T19:48:55;5.28;;;1.65;;
77722;SDS011;67811;42.656;23.394;2024-02-23T19:53:00;3.25;;;1.73;;
77722;SDS011;67811;42.656;23.394;2024-02-23T19:57:06;4.70;;;2.40;;
77722;SDS011;67811;42.656;23.394;2024-02-23T20:01:11;3.43;;;2.07;;
77722;SDS011;67811;42.656;23.394;2024-02-23T20:05:16;4.88;;;2.47;;
77722;SDS011;67811;42.656;23.394;2024-02-23T20:09:22;3.23;;;1.80;;
77722;SDS011;67811;42.656;23.394;2024-02-23T20:13:27;3.60;;;1.83;;
77722;SDS011;67811;42.656;23.394;2024-02-23T20:17:32;3.87;;;2.17;;
77722;SDS011;67811;42.656;23.394;2024-02-23T20:21:40;5.07;;;2.58;;
77722;SDS011;67811;42.656;23.394;2024-02-23T20:25:46;2.65;;;1.40;;
77722;SDS011;67811;42.656;23.394;2024-02-23T20:29:51;3.28;;;2.13;;
77722;SDS011;67811;42.656;23.394;2024-02-23T20:33:56;4.47;;;2.20;;
77722;SDS011;67811;42.656;23.394;2024-02-23T20:38:01;3.92;;;1.88;;
77722;SDS011;67811;42.656;23.394;2024-02-23T20:42:07;3.37;;;1.83;;
77722;SDS011;67811;42.656;23.394;2024-02-23T20:46:12;3.58;;;1.75;;
77722;SDS011;67811;42.656;23.394;2024-02-23T20:50:17;4.05;;;2.20;;
77722;SDS011;67811;42.656;23.394;2024-02-23T20:54:23;2.83;;;1.57;;
77722;SDS011;67811;42.656;23.394;2024-02-23T20:58:28;6.10;;;3.03;;
77722;SDS011;67811;42.656;23.394;2024-02-23T21:02:33;4.40;;;2.37;;
77722;SDS011;67811;42.656;23.394;2024-02-23T21:06:38;4.57;;;2.05;;
77722;SDS011;67811;42.656;23.394;2024-02-23T21:10:44;4.67;;;2.50;;
77722;SDS011;67811;42.656;23.394;2024-02-23T21:14:49;3.87;;;1.80;;
77722;SDS011;67811;42.656;23.394;2024-02-23T21:18:54;4.55;;;2.00;;
77722;SDS011;67811;42.656;23.394;2024-02-23T21:22:59;3.88;;;1.90;;
77722;SDS011;67811;42.656;23.394;2024-02-23T21:27:05;3.47;;;1.75;;
77722;SDS011;67811;42.656;23.394;2024-02-23T21:31:12;4.65;;;1.90;;
77722;SDS011;67811;42.656;23.394;2024-02-23T21:35:18;5.65;;;2.22;;
77722;SDS011;67811;42.656;23.394;2024-02-23T21:39:23;3.70;;;1.60;;
77722;SDS011;67811;42.656;23.394;2024-02-23T21:43:28;2.97;;;1.47;;
77722;SDS011;67811;42.656;23.394;2024-02-23T21:47:33;3.15;;;1.80;;
77722;SDS011;67811;42.656;23.394;2024-02-23T21:51:39;4.40;;;2.30;;
77722;SDS011;67811;42.656;23.394;2024-02-23T21:55:44;4.03;;;1.65;;
77722;SDS011;67811;42.656;23.394;2024-02-23T21:59:49;3.83;;;1.93;;
77722;SDS011;67811;42.656;23.394;2024-02-23T22:03:55;5.38;;;1.88;;
77722;SDS011;67811;42.656;23.394;2024-02-23T22:08:00;3.50;;;1.50;;
77722;SDS011;67811;42.656;23.394;2024-02-23T22:12:05;3.88;;;1.73;;
77722;SDS011;67811;42.656;23.394;2024-02-23T22:16:11;3.23;;;1.53;;
77722;SDS011;67811;42.656;23.394;2024-02-23T22:20:16;16.98;;;9.48;;
77722;SDS011;67811;42.656;23.394;2024-02-23T22:24:22;11.25;;;6.35;;
77722;SDS011;67811;42.656;23.394;2024-02-23T22:28:27;6.68;;;3.63;;
77722;SDS011;67811;42.656;23.394;2024-02-23T22:32:32;14.43;;;7.97;;
77722;SDS011;67811;42.656;23.394;2024-02-23T22:36:37;16.30;;;8.23;;
77722;SDS011;67811;42.656;23.394;2024-02-23T22:40:43;16.57;;;9.07;;
77722;SDS011;67811;42.656;23.394;2024-02-23T22:44:48;10.57;;;6.07;;
77722;SDS011;67811;42.656;23.394;2024-02-23T22:48:53;6.95;;;2.88;;
77722;SDS011;67811;42.656;23.394;2024-02-23T22:52:58;3.45;;;1.98;;
77722;SDS011;67811;42.656;23.394;2024-02-23T22:57:04;3.43;;;1.80;;
77722;SDS011;67811;42.656;23.394;2024-02-23T23:01:09;1.97;;;1.07;;
77722;SDS011;67811;42.656;23.394;2024-02-23T23:05:14;2.47;;;1.42;;
77722;SDS011;67811;42.656;23.394;2024-02-23T23:09:19;3.40;;;1.70;;
77722;SDS011;67811;42.656;23.394;2024-02-23T23:13:25;3.43;;;1.93;;
77722;SDS011;67811;42.656;23.394;2024-02-23T23:17:30;2.83;;;1.23;;
77722;SDS011;67811;42.656;23.394;2024-02-23T23:21:35;3.78;;;1.67;;
77722;SDS011;67811;42.656;23.394;2024-02-23T23:25:40;3.40;;;1.70;;
77722;SDS011;67811;42.656;23.394;2024-02-23T23:29:46;4.73;;;1.97;;
77722;SDS011;67811;42.656;23.394;2024-02-23T23:33:51;8.10;;;4.53;;
77722;SDS011;67811;42.656;23.394;2024-02-23T23:37:56;9.50;;;5.57;;
77722;SDS011;67811;42.656;23.394;2024-02-23T23:42:02;8.73;;;4.80;;
77722;SDS011;67811;42.656;23.394;2024-02-23T23:46:07;6.73;;;2.97;;
77722;SDS011;67811;42.656;23.394;2024-02-23T23:50:12;7.73;;;3.67;;
77722;SDS011;67811;42.656;23.394;2024-02-23T23:54:17;7.57;;;4.27;;
77722;SDS011;67811;42.656;23.394;2024-02-23T23:58:23;11.13;;;5.85;;
